sensor_id;sensor_type;location;lat;lon;timestamp;temperature;humidity
7576;DHT22;3829;50.798;4.358;2024-03-02T00:00:22;6.40;99.90
7576;DHT22;3829;50.798;4.358;2024-03-02T00:02:49;6.40;99.90
7576;DHT22;3829;50.798;4.358;2024-03-02T00:05:16;6.30;99.90
7576;DHT22;3829;50.798;4.358;2024-03-02T00:07:44;6.30;99.90
7576;DHT22;3829;50.798;4.358;2024-03-02T00:10:12;6.30;99.90
7576;DHT22;3829;50.798;4.358;2024-03-02T00:12:40;6.30;99.90
7576;DHT22;3829;50.798;4.358;2024-03-02T00:18:04;6.30;99.90
7576;DHT22;3829;50.798;4.358;2024-03-02T00:20:30;6.30;99.90
7576;DHT22;3829;50.798;4.358;2024-03-02T00:23:02;6.30;99.90
7576;DHT22;3829;50.798;4.358;2024-03-02T00:25:37;6.30;99.90
7576;DHT22;3829;50.798;4.358;2024-03-02T00:28:04;6.30;99.90
7576;DHT22;3829;50.798;4.358;2024-03-02T00:30:49;6.30;99.90
7576;DHT22;3829;50.798;4.358;2024-03-02T00:33:16;6.30;99.90
7576;DHT22;3829;50.798;4.358;2024-03-02T00:35:44;6.30;99.90
7576;DHT22;3829;50.798;4.358;2024-03-02T00:38:10;6.30;99.90
7576;DHT22;3829;50.798;4.358;2024-03-02T00:40:36;6.30;99.90
7576;DHT22;3829;50.798;4.358;2024-03-02T00:43:02;6.30;99.90
7576;DHT22;3829;50.798;4.358;2024-03-02T00:45:28;6.30;99.90
7576;DHT22;3829;50.798;4.358;2024-03-02T00:47:54;6.30;99.90
7576;DHT22;3829;50.798;4.358;2024-03-02T00:50:20;6.20;99.90
7576;DHT22;3829;50.798;4.358;2024-03-02T00:52:46;6.20;99.90
7576;DHT22;3829;50.798;4.358;2024-03-02T00:55:14;6.30;99.90
7576;DHT22;3829;50.798;4.358;2024-03-02T00:57:39;6.30;99.90
7576;DHT22;3829;50.798;4.358;2024-03-02T01:00:05;6.30;99.90
7576;DHT22;3829;50.798;4.358;2024-03-02T01:02:35;6.40;99.90
7576;DHT22;3829;50.798;4.358;2024-03-02T01:05:00;6.40;99.90
7576;DHT22;3829;50.798;4.358;2024-03-02T01:07:26;6.40;99.90
7576;DHT22;3829;50.798;4.358;2024-03-02T01:09:52;6.40;99.90
7576;DHT22;3829;50.798;4.358;2024-03-02T01:12:17;6.40;99.90
7576;DHT22;3829;50.798;4.358;2024-03-02T01:14:43;6.40;99.90
7576;DHT22;3829;50.798;4.358;2024-03-02T01:17:08;6.50;99.90
7576;DHT22;3829;50.798;4.358;2024-03-02T01:19:34;6.40;99.90
7576;DHT22;3829;50.798;4.358;2024-03-02T01:21:59;6.50;99.90
7576;DHT22;3829;50.798;4.358;2024-03-02T01:24:25;6.50;99.90
7576;DHT22;3829;50.798;4.358;2024-03-02T01:26:51;6.50;99.90
7576;DHT22;3829;50.798;4.358;2024-03-02T01:29:16;6.50;99.90
7576;DHT22;3829;50.798;4.358;2024-03-02T01:31:42;6.50;99.90
7576;DHT22;3829;50.798;4.358;2024-03-02T01:34:08;6.50;99.90
7576;DHT22;3829;50.798;4.358;2024-03-02T01:36:33;6.50;99.90
7576;DHT22;3829;50.798;4.358;2024-03-02T01:38:59;6.60;99.90
7576;DHT22;3829;50.798;4.358;2024-03-02T01:41:25;6.60;99.90
7576;DHT22;3829;50.798;4.358;2024-03-02T01:43:50;6.50;99.90
7576;DHT22;3829;50.798;4.358;2024-03-02T01:46:16;6.50;99.90
7576;DHT22;3829;50.798;4.358;2024-03-02T01:48:42;6.50;99.90
7576;DHT22;3829;50.798;4.358;2024-03-02T01:51:07;6.50;99.90
7576;DHT22;3829;50.798;4.358;2024-03-02T01:53:33;6.50;99.90
7576;DHT22;3829;50.798;4.358;2024-03-02T01:55:59;6.60;99.90
7576;DHT22;3829;50.798;4.358;2024-03-02T01:58:24;6.50;99.90
7576;DHT22;3829;50.798;4.358;2024-03-02T02:00:50;6.60;99.90
7576;DHT22;3829;50.798;4.358;2024-03-02T02:03:16;6.60;99.90
7576;DHT22;3829;50.798;4.358;2024-03-02T02:05:43;6.60;99.90
7576;DHT22;3829;50.798;4.358;2024-03-02T02:08:08;6.60;99.90
7576;DHT22;3829;50.798;4.358;2024-03-02T02:10:34;6.70;99.90
7576;DHT22;3829;50.798;4.358;2024-03-02T02:13:00;6.70;99.90
7576;DHT22;3829;50.798;4.358;2024-03-02T02:15:27;6.70;99.90
7576;DHT22;3829;50.798;4.358;2024-03-02T02:17:54;6.70;99.90
7576;DHT22;3829;50.798;4.358;2024-03-02T02:20:19;6.70;99.90
7576;DHT22;3829;50.798;4.358;2024-03-02T02:22:56;6.70;99.90
7576;DHT22;3829;50.798;4.358;2024-03-02T02:25:22;6.80;99.90
7576;DHT22;3829;50.798;4.358;2024-03-02T02:27:48;6.70;99.90
7576;DHT22;3829;50.798;4.358;2024-03-02T02:30:13;6.80;99.90
7576;DHT22;3829;50.798;4.358;2024-03-02T02:32:39;6.80;99.90
7576;DHT22;3829;50.798;4.358;2024-03-02T02:35:05;6.80;99.90
7576;DHT22;3829;50.798;4.358;2024-03-02T02:37:30;6.70;99.90
7576;DHT22;3829;50.798;4.358;2024-03-02T02:39:56;6.70;99.90
7576;DHT22;3829;50.798;4.358;2024-03-02T02:42:21;6.70;99.90
7576;DHT22;3829;50.798;4.358;2024-03-02T02:44:47;6.70;99.90
7576;DHT22;3829;50.798;4.358;2024-03-02T02:47:12;6.70;99.90
7576;DHT22;3829;50.798;4.358;2024-03-02T02:49:38;6.60;99.90
7576;DHT22;3829;50.798;4.358;2024-03-02T02:52:03;6.60;99.90
7576;DHT22;3829;50.798;4.358;2024-03-02T02:54:29;6.50;99.90
7576;DHT22;3829;50.798;4.358;2024-03-02T02:56:54;6.40;99.90
7576;DHT22;3829;50.798;4.358;2024-03-02T02:59:20;6.30;99.90
7576;DHT22;3829;50.798;4.358;2024-03-02T03:01:45;6.20;99.90
7576;DHT22;3829;50.798;4.358;2024-03-02T03:04:11;6.10;99.90
7576;DHT22;3829;50.798;4.358;2024-03-02T03:06:39;6.00;99.90
7576;DHT22;3829;50.798;4.358;2024-03-02T03:09:05;6.00;99.90
7576;DHT22;3829;50.798;4.358;2024-03-02T03:11:30;6.00;99.90
7576;DHT22;3829;50.798;4.358;2024-03-02T03:13:56;5.90;99.90
7576;DHT22;3829;50.798;4.358;2024-03-02T03:16:21;5.80;99.90
7576;DHT22;3829;50.798;4.358;2024-03-02T03:18:47;5.80;99.90
7576;DHT22;3829;50.798;4.358;2024-03-02T03:21:13;5.80;99.90
7576;DHT22;3829;50.798;4.358;2024-03-02T03:23:38;6.00;99.90
7576;DHT22;3829;50.798;4.358;2024-03-02T03:26:04;6.00;99.90
7576;DHT22;3829;50.798;4.358;2024-03-02T03:28:29;6.10;99.90
7576;DHT22;3829;50.798;4.358;2024-03-02T03:30:55;6.10;99.90
7576;DHT22;3829;50.798;4.358;2024-03-02T03:33:20;6.20;99.90
7576;DHT22;3829;50.798;4.358;2024-03-02T03:35:46;6.30;99.90
7576;DHT22;3829;50.798;4.358;2024-03-02T03:38:11;6.30;99.90
7576;DHT22;3829;50.798;4.358;2024-03-02T03:40:37;6.30;99.90
7576;DHT22;3829;50.798;4.358;2024-03-02T03:43:03;6.30;99.90
7576;DHT22;3829;50.798;4.358;2024-03-02T03:45:28;6.30;99.90
7576;DHT22;3829;50.798;4.358;2024-03-02T03:47:54;6.30;99.90
7576;DHT22;3829;50.798;4.358;2024-03-02T03:50:20;6.40;99.90
7576;DHT22;3829;50.798;4.358;2024-03-02T03:52:45;6.30;99.90
7576;DHT22;3829;50.798;4.358;2024-03-02T03:55:11;6.30;99.90
7576;DHT22;3829;50.798;4.358;2024-03-02T03:57:36;6.30;99.90
7576;DHT22;3829;50.798;4.358;2024-03-02T04:00:03;6.30;99.90
7576;DHT22;3829;50.798;4.358;2024-03-02T04:02:29;6.30;99.90
7576;DHT22;3829;50.798;4.358;2024-03-02T04:04:55;6.30;99.90
7576;DHT22;3829;50.798;4.358;2024-03-02T04:07:20;6.40;99.90
7576;DHT22;3829;50.798;4.358;2024-03-02T04:09:46;6.30;99.90
7576;DHT22;3829;50.798;4.358;2024-03-02T04:12:11;6.20;99.90
7576;DHT22;3829;50.798;4.358;2024-03-02T04:14:38;6.10;99.90
7576;DHT22;3829;50.798;4.358;2024-03-02T04:17:04;6.00;99.90
7576;DHT22;3829;50.798;4.358;2024-03-02T04:19:29;6.00;99.90
7576;DHT22;3829;50.798;4.358;2024-03-02T04:21:55;6.10;99.90
7576;DHT22;3829;50.798;4.358;2024-03-02T04:24:20;6.10;99.90
7576;DHT22;3829;50.798;4.358;2024-03-02T04:26:46;6.10;99.90
7576;DHT22;3829;50.798;4.358;2024-03-02T04:29:11;6.00;99.90
7576;DHT22;3829;50.798;4.358;2024-03-02T04:31:37;6.00;99.90
7576;DHT22;3829;50.798;4.358;2024-03-02T04:34:02;5.80;99.90
7576;DHT22;3829;50.798;4.358;2024-03-02T04:36:28;5.80;99.90
7576;DHT22;3829;50.798;4.358;2024-03-02T04:38:53;5.80;99.90
7576;DHT22;3829;50.798;4.358;2024-03-02T04:41:19;5.80;99.90
7576;DHT22;3829;50.798;4.358;2024-03-02T04:43:44;5.80;99.90
7576;DHT22;3829;50.798;4.358;2024-03-02T04:46:10;5.70;99.90
7576;DHT22;3829;50.798;4.358;2024-03-02T04:48:36;5.70;99.90
7576;DHT22;3829;50.798;4.358;2024-03-02T04:51:01;5.60;99.90
7576;DHT22;3829;50.798;4.358;2024-03-02T04:53:27;5.60;99.90
7576;DHT22;3829;50.798;4.358;2024-03-02T04:55:53;5.50;99.90
7576;DHT22;3829;50.798;4.358;2024-03-02T04:58:38;5.50;99.90
7576;DHT22;3829;50.798;4.358;2024-03-02T05:01:04;5.50;99.90
7576;DHT22;3829;50.798;4.358;2024-03-02T05:03:29;5.50;99.90
7576;DHT22;3829;50.798;4.358;2024-03-02T05:05:57;5.40;99.90
7576;DHT22;3829;50.798;4.358;2024-03-02T05:08:23;5.40;99.90
7576;DHT22;3829;50.798;4.358;2024-03-02T05:10:48;5.40;99.90
7576;DHT22;3829;50.798;4.358;2024-03-02T05:13:14;5.40;99.90
7576;DHT22;3829;50.798;4.358;2024-03-02T05:15:39;5.40;99.90
7576;DHT22;3829;50.798;4.358;2024-03-02T05:18:06;5.30;99.90
7576;DHT22;3829;50.798;4.358;2024-03-02T05:20:31;5.20;99.90
7576;DHT22;3829;50.798;4.358;2024-03-02T05:22:57;5.30;99.90
7576;DHT22;3829;50.798;4.358;2024-03-02T05:25:22;5.20;99.90
7576;DHT22;3829;50.798;4.358;2024-03-02T05:27:48;5.30;99.90
7576;DHT22;3829;50.798;4.358;2024-03-02T05:30:13;5.30;99.90
7576;DHT22;3829;50.798;4.358;2024-03-02T05:32:39;5.20;99.90
7576;DHT22;3829;50.798;4.358;2024-03-02T05:35:05;5.20;99.90
7576;DHT22;3829;50.798;4.358;2024-03-02T05:37:30;5.20;99.90
7576;DHT22;3829;50.798;4.358;2024-03-02T05:39:56;5.20;99.90
7576;DHT22;3829;50.798;4.358;2024-03-02T05:42:22;5.20;99.90
7576;DHT22;3829;50.798;4.358;2024-03-02T05:44:47;5.10;99.90
7576;DHT22;3829;50.798;4.358;2024-03-02T05:47:13;5.20;99.90
7576;DHT22;3829;50.798;4.358;2024-03-02T05:49:38;5.20;99.90
7576;DHT22;3829;50.798;4.358;2024-03-02T05:52:04;5.20;99.90
7576;DHT22;3829;50.798;4.358;2024-03-02T05:54:30;5.20;99.90
7576;DHT22;3829;50.798;4.358;2024-03-02T05:56:55;5.20;99.90
7576;DHT22;3829;50.798;4.358;2024-03-02T05:59:21;5.30;99.90
7576;DHT22;3829;50.798;4.358;2024-03-02T06:01:46;5.30;99.90
7576;DHT22;3829;50.798;4.358;2024-03-02T06:04:13;5.20;99.90
7576;DHT22;3829;50.798;4.358;2024-03-02T06:06:39;5.20;99.90
7576;DHT22;3829;50.798;4.358;2024-03-02T06:09:06;5.20;99.90
7576;DHT22;3829;50.798;4.358;2024-03-02T06:11:38;5.20;99.90
7576;DHT22;3829;50.798;4.358;2024-03-02T06:14:07;5.20;99.90
7576;DHT22;3829;50.798;4.358;2024-03-02T06:16:33;5.20;99.90
7576;DHT22;3829;50.798;4.358;2024-03-02T06:18:59;5.10;99.90
7576;DHT22;3829;50.798;4.358;2024-03-02T06:21:25;5.20;99.90
7576;DHT22;3829;50.798;4.358;2024-03-02T06:23:50;5.20;99.90
7576;DHT22;3829;50.798;4.358;2024-03-02T06:26:16;5.20;99.90
7576;DHT22;3829;50.798;4.358;2024-03-02T06:28:42;5.10;99.90
7576;DHT22;3829;50.798;4.358;2024-03-02T06:31:08;5.20;99.90
7576;DHT22;3829;50.798;4.358;2024-03-02T06:33:34;5.10;99.90
7576;DHT22;3829;50.798;4.358;2024-03-02T06:36:00;5.10;99.90
7576;DHT22;3829;50.798;4.358;2024-03-02T06:38:25;5.20;99.90
7576;DHT22;3829;50.798;4.358;2024-03-02T06:40:51;5.20;99.90
7576;DHT22;3829;50.798;4.358;2024-03-02T06:43:17;5.20;99.90
7576;DHT22;3829;50.798;4.358;2024-03-02T06:45:42;5.20;99.90
7576;DHT22;3829;50.798;4.358;2024-03-02T06:48:08;5.20;99.90
7576;DHT22;3829;50.798;4.358;2024-03-02T06:50:33;5.20;99.90
7576;DHT22;3829;50.798;4.358;2024-03-02T06:52:59;5.20;99.90
7576;DHT22;3829;50.798;4.358;2024-03-02T06:55:24;5.20;99.90
7576;DHT22;3829;50.798;4.358;2024-03-02T06:57:51;5.30;99.90
7576;DHT22;3829;50.798;4.358;2024-03-02T07:00:17;5.30;99.90
7576;DHT22;3829;50.798;4.358;2024-03-02T07:02:43;5.30;99.90
7576;DHT22;3829;50.798;4.358;2024-03-02T07:05:10;5.30;99.90
7576;DHT22;3829;50.798;4.358;2024-03-02T07:07:36;5.30;99.90
7576;DHT22;3829;50.798;4.358;2024-03-02T07:10:03;5.30;99.90
7576;DHT22;3829;50.798;4.358;2024-03-02T07:12:29;5.30;99.90
7576;DHT22;3829;50.798;4.358;2024-03-02T07:14:55;5.40;99.90
7576;DHT22;3829;50.798;4.358;2024-03-02T07:17:37;5.40;99.90
7576;DHT22;3829;50.798;4.358;2024-03-02T07:20:02;5.40;99.90
7576;DHT22;3829;50.798;4.358;2024-03-02T07:22:29;5.50;99.90
7576;DHT22;3829;50.798;4.358;2024-03-02T07:24:55;5.60;99.90
7576;DHT22;3829;50.798;4.358;2024-03-02T07:27:21;5.50;99.90
7576;DHT22;3829;50.798;4.358;2024-03-02T07:29:46;5.60;99.90
7576;DHT22;3829;50.798;4.358;2024-03-02T07:32:12;5.70;99.90
7576;DHT22;3829;50.798;4.358;2024-03-02T07:34:38;5.80;99.90
7576;DHT22;3829;50.798;4.358;2024-03-02T07:37:04;5.80;99.90
7576;DHT22;3829;50.798;4.358;2024-03-02T07:39:30;5.80;99.90
7576;DHT22;3829;50.798;4.358;2024-03-02T07:41:55;5.90;99.90
7576;DHT22;3829;50.798;4.358;2024-03-02T07:44:21;6.00;99.90
7576;DHT22;3829;50.798;4.358;2024-03-02T07:46:48;6.00;99.90
7576;DHT22;3829;50.798;4.358;2024-03-02T07:49:18;6.10;99.90
7576;DHT22;3829;50.798;4.358;2024-03-02T07:51:44;6.20;99.90
7576;DHT22;3829;50.798;4.358;2024-03-02T07:54:09;6.20;99.90
7576;DHT22;3829;50.798;4.358;2024-03-02T07:56:35;6.30;99.90
7576;DHT22;3829;50.798;4.358;2024-03-02T07:59:01;6.40;99.90
7576;DHT22;3829;50.798;4.358;2024-03-02T08:01:29;6.40;99.90
7576;DHT22;3829;50.798;4.358;2024-03-02T08:03:57;6.50;99.90
7576;DHT22;3829;50.798;4.358;2024-03-02T08:06:24;6.50;99.90
7576;DHT22;3829;50.798;4.358;2024-03-02T08:08:53;6.60;99.90
7576;DHT22;3829;50.798;4.358;2024-03-02T08:11:20;6.60;99.90
7576;DHT22;3829;50.798;4.358;2024-03-02T08:13:45;6.80;99.90
7576;DHT22;3829;50.798;4.358;2024-03-02T08:16:11;6.90;99.90
7576;DHT22;3829;50.798;4.358;2024-03-02T08:18:36;6.90;99.90
7576;DHT22;3829;50.798;4.358;2024-03-02T08:21:02;7.00;99.90
7576;DHT22;3829;50.798;4.358;2024-03-02T08:23:28;7.10;99.90
7576;DHT22;3829;50.798;4.358;2024-03-02T08:25:54;7.10;99.90
7576;DHT22;3829;50.798;4.358;2024-03-02T08:28:19;7.20;99.90
7576;DHT22;3829;50.798;4.358;2024-03-02T08:30:45;7.20;99.90
7576;DHT22;3829;50.798;4.358;2024-03-02T08:33:11;7.30;99.90
7576;DHT22;3829;50.798;4.358;2024-03-02T08:35:36;7.40;99.90
7576;DHT22;3829;50.798;4.358;2024-03-02T08:38:02;7.50;99.90
7576;DHT22;3829;50.798;4.358;2024-03-02T08:40:28;7.60;99.90
7576;DHT22;3829;50.798;4.358;2024-03-02T08:42:54;7.80;99.90
7576;DHT22;3829;50.798;4.358;2024-03-02T08:45:20;7.90;99.90
7576;DHT22;3829;50.798;4.358;2024-03-02T08:47:46;7.90;99.90
7576;DHT22;3829;50.798;4.358;2024-03-02T08:50:12;8.10;99.90
7576;DHT22;3829;50.798;4.358;2024-03-02T08:52:38;8.20;99.90
7576;DHT22;3829;50.798;4.358;2024-03-02T08:55:04;8.20;99.90
7576;DHT22;3829;50.798;4.358;2024-03-02T08:57:30;8.20;99.90
7576;DHT22;3829;50.798;4.358;2024-03-02T08:59:56;8.30;99.90
7576;DHT22;3829;50.798;4.358;2024-03-02T09:02:21;8.50;99.90
7576;DHT22;3829;50.798;4.358;2024-03-02T09:04:47;8.70;99.90
7576;DHT22;3829;50.798;4.358;2024-03-02T09:07:14;8.80;99.90
7576;DHT22;3829;50.798;4.358;2024-03-02T09:09:39;8.80;99.90
7576;DHT22;3829;50.798;4.358;2024-03-02T09:12:06;8.80;99.90
7576;DHT22;3829;50.798;4.358;2024-03-02T09:14:32;8.80;99.90
7576;DHT22;3829;50.798;4.358;2024-03-02T09:16:58;8.80;99.90
7576;DHT22;3829;50.798;4.358;2024-03-02T09:19:23;8.80;99.90
7576;DHT22;3829;50.798;4.358;2024-03-02T09:21:49;8.90;99.90
7576;DHT22;3829;50.798;4.358;2024-03-02T09:24:15;8.90;99.90
7576;DHT22;3829;50.798;4.358;2024-03-02T09:26:41;8.90;99.90
7576;DHT22;3829;50.798;4.358;2024-03-02T09:29:06;8.90;99.90
7576;DHT22;3829;50.798;4.358;2024-03-02T09:31:32;8.80;99.90
7576;DHT22;3829;50.798;4.358;2024-03-02T09:33:57;9.10;99.90
7576;DHT22;3829;50.798;4.358;2024-03-02T09:36:23;9.30;99.90
7576;DHT22;3829;50.798;4.358;2024-03-02T09:38:49;9.50;99.90
7576;DHT22;3829;50.798;4.358;2024-03-02T09:41:15;9.40;99.90
7576;DHT22;3829;50.798;4.358;2024-03-02T09:43:41;9.40;99.90
7576;DHT22;3829;50.798;4.358;2024-03-02T09:46:09;9.30;99.90
7576;DHT22;3829;50.798;4.358;2024-03-02T09:48:35;9.30;99.90
7576;DHT22;3829;50.798;4.358;2024-03-02T09:51:01;9.40;99.90
7576;DHT22;3829;50.798;4.358;2024-03-02T09:53:31;9.40;99.90
7576;DHT22;3829;50.798;4.358;2024-03-02T09:55:59;9.40;99.90
7576;DHT22;3829;50.798;4.358;2024-03-02T09:58:24;9.40;99.90
7576;DHT22;3829;50.798;4.358;2024-03-02T10:00:50;9.50;99.90
7576;DHT22;3829;50.798;4.358;2024-03-02T10:03:16;9.60;99.90
7576;DHT22;3829;50.798;4.358;2024-03-02T10:05:43;9.70;99.90
7576;DHT22;3829;50.798;4.358;2024-03-02T10:08:09;10.00;99.90
7576;DHT22;3829;50.798;4.358;2024-03-02T10:10:36;10.30;99.90
7576;DHT22;3829;50.798;4.358;2024-03-02T10:13:06;10.40;99.90
7576;DHT22;3829;50.798;4.358;2024-03-02T10:15:32;10.50;99.90
7576;DHT22;3829;50.798;4.358;2024-03-02T10:17:58;10.50;99.90
7576;DHT22;3829;50.798;4.358;2024-03-02T10:20:25;10.70;99.90
7576;DHT22;3829;50.798;4.358;2024-03-02T10:22:50;10.90;99.90
7576;DHT22;3829;50.798;4.358;2024-03-02T10:25:28;10.80;99.90
7576;DHT22;3829;50.798;4.358;2024-03-02T10:27:57;10.80;99.90
7576;DHT22;3829;50.798;4.358;2024-03-02T10:30:23;10.90;99.90
7576;DHT22;3829;50.798;4.358;2024-03-02T10:32:49;11.10;99.90
7576;DHT22;3829;50.798;4.358;2024-03-02T10:35:16;11.20;99.90
7576;DHT22;3829;50.798;4.358;2024-03-02T10:37:42;11.00;99.90
7576;DHT22;3829;50.798;4.358;2024-03-02T10:40:10;10.70;99.90
7576;DHT22;3829;50.798;4.358;2024-03-02T10:42:38;10.70;99.90
7576;DHT22;3829;50.798;4.358;2024-03-02T10:45:06;11.00;99.90
7576;DHT22;3829;50.798;4.358;2024-03-02T10:47:33;11.10;99.90
7576;DHT22;3829;50.798;4.358;2024-03-02T10:50:01;11.20;99.90
7576;DHT22;3829;50.798;4.358;2024-03-02T10:52:29;11.30;99.90
7576;DHT22;3829;50.798;4.358;2024-03-02T10:54:54;11.40;99.90
7576;DHT22;3829;50.798;4.358;2024-03-02T10:57:21;11.30;99.90
7576;DHT22;3829;50.798;4.358;2024-03-02T11:00:00;11.40;99.90
7576;DHT22;3829;50.798;4.358;2024-03-02T11:02:27;11.50;99.90
7576;DHT22;3829;50.798;4.358;2024-03-02T11:04:55;11.40;99.90
7576;DHT22;3829;50.798;4.358;2024-03-02T11:07:21;11.40;99.90
7576;DHT22;3829;50.798;4.358;2024-03-02T11:09:54;11.50;99.90
7576;DHT22;3829;50.798;4.358;2024-03-02T11:12:28;11.60;99.90
7576;DHT22;3829;50.798;4.358;2024-03-02T11:14:55;11.60;99.90
7576;DHT22;3829;50.798;4.358;2024-03-02T11:17:21;11.90;99.90
7576;DHT22;3829;50.798;4.358;2024-03-02T11:19:47;11.90;99.90
7576;DHT22;3829;50.798;4.358;2024-03-02T11:22:14;11.90;99.90
7576;DHT22;3829;50.798;4.358;2024-03-02T11:24:49;11.90;99.90
7576;DHT22;3829;50.798;4.358;2024-03-02T11:27:14;11.90;99.90
7576;DHT22;3829;50.798;4.358;2024-03-02T11:30:00;12.10;99.90
7576;DHT22;3829;50.798;4.358;2024-03-02T11:32:25;12.00;99.90
7576;DHT22;3829;50.798;4.358;2024-03-02T11:34:51;12.10;99.90
7576;DHT22;3829;50.798;4.358;2024-03-02T11:37:19;12.00;99.90
7576;DHT22;3829;50.798;4.358;2024-03-02T11:39:47;12.10;99.90
7576;DHT22;3829;50.798;4.358;2024-03-02T11:42:15;12.30;99.90
7576;DHT22;3829;50.798;4.358;2024-03-02T11:44:48;12.40;99.90
7576;DHT22;3829;50.798;4.358;2024-03-02T11:47:16;12.70;99.90
7576;DHT22;3829;50.798;4.358;2024-03-02T11:49:45;12.70;99.90
7576;DHT22;3829;50.798;4.358;2024-03-02T11:52:12;12.60;99.90
7576;DHT22;3829;50.798;4.358;2024-03-02T11:54:40;12.70;99.90
7576;DHT22;3829;50.798;4.358;2024-03-02T11:57:07;12.60;99.90
7576;DHT22;3829;50.798;4.358;2024-03-02T11:59:33;12.50;99.90
7576;DHT22;3829;50.798;4.358;2024-03-02T12:01:59;12.40;99.90
7576;DHT22;3829;50.798;4.358;2024-03-02T12:04:25;12.60;99.90
7576;DHT22;3829;50.798;4.358;2024-03-02T12:06:58;12.70;99.90
7576;DHT22;3829;50.798;4.358;2024-03-02T12:09:26;12.80;99.90
7576;DHT22;3829;50.798;4.358;2024-03-02T12:12:04;12.90;99.90
7576;DHT22;3829;50.798;4.358;2024-03-02T12:14:31;12.80;99.90
7576;DHT22;3829;50.798;4.358;2024-03-02T12:16:57;12.70;99.90
7576;DHT22;3829;50.798;4.358;2024-03-02T12:19:24;12.80;99.90
7576;DHT22;3829;50.798;4.358;2024-03-02T12:21:50;12.80;99.90
7576;DHT22;3829;50.798;4.358;2024-03-02T12:24:16;12.70;99.90
7576;DHT22;3829;50.798;4.358;2024-03-02T12:26:42;12.80;99.90
7576;DHT22;3829;50.798;4.358;2024-03-02T12:29:07;12.70;99.90
7576;DHT22;3829;50.798;4.358;2024-03-02T12:31:34;12.50;99.90
7576;DHT22;3829;50.798;4.358;2024-03-02T12:33:59;12.30;99.90
7576;DHT22;3829;50.798;4.358;2024-03-02T12:36:25;12.30;99.90
7576;DHT22;3829;50.798;4.358;2024-03-02T12:38:53;12.30;99.90
7576;DHT22;3829;50.798;4.358;2024-03-02T12:41:18;12.30;99.90
7576;DHT22;3829;50.798;4.358;2024-03-02T12:43:44;12.40;99.90
7576;DHT22;3829;50.798;4.358;2024-03-02T12:46:10;12.50;99.90
7576;DHT22;3829;50.798;4.358;2024-03-02T12:48:37;12.30;99.90
7576;DHT22;3829;50.798;4.358;2024-03-02T12:51:02;12.30;99.90
7576;DHT22;3829;50.798;4.358;2024-03-02T12:53:28;12.50;99.90
7576;DHT22;3829;50.798;4.358;2024-03-02T12:55:54;12.90;99.90
7576;DHT22;3829;50.798;4.358;2024-03-02T12:58:22;13.10;99.90
7576;DHT22;3829;50.798;4.358;2024-03-02T13:00:48;13.10;99.90
7576;DHT22;3829;50.798;4.358;2024-03-02T13:03:13;13.00;99.90
7576;DHT22;3829;50.798;4.358;2024-03-02T13:05:39;13.10;99.90
7576;DHT22;3829;50.798;4.358;2024-03-02T13:08:06;13.20;99.90
7576;DHT22;3829;50.798;4.358;2024-03-02T13:10:32;13.10;99.90
7576;DHT22;3829;50.798;4.358;2024-03-02T13:12:58;12.90;99.90
7576;DHT22;3829;50.798;4.358;2024-03-02T13:15:26;12.90;99.90
7576;DHT22;3829;50.798;4.358;2024-03-02T13:17:52;12.90;99.90
7576;DHT22;3829;50.798;4.358;2024-03-02T13:20:18;12.90;99.90
7576;DHT22;3829;50.798;4.358;2024-03-02T13:22:44;12.90;99.90
7576;DHT22;3829;50.798;4.358;2024-03-02T13:25:10;13.10;99.90
7576;DHT22;3829;50.798;4.358;2024-03-02T13:27:36;13.00;99.90
7576;DHT22;3829;50.798;4.358;2024-03-02T13:30:03;13.10;99.90
7576;DHT22;3829;50.798;4.358;2024-03-02T13:32:29;13.10;99.90
7576;DHT22;3829;50.798;4.358;2024-03-02T13:34:54;12.90;99.90
7576;DHT22;3829;50.798;4.358;2024-03-02T13:37:20;13.10;99.90
7576;DHT22;3829;50.798;4.358;2024-03-02T13:39:46;13.10;99.90
7576;DHT22;3829;50.798;4.358;2024-03-02T13:42:13;13.10;99.90
7576;DHT22;3829;50.798;4.358;2024-03-02T13:44:40;13.10;99.90
7576;DHT22;3829;50.798;4.358;2024-03-02T13:47:08;13.00;99.90
7576;DHT22;3829;50.798;4.358;2024-03-02T13:49:34;13.10;99.90
7576;DHT22;3829;50.798;4.358;2024-03-02T13:52:02;13.10;99.90
7576;DHT22;3829;50.798;4.358;2024-03-02T13:54:29;13.10;99.90
7576;DHT22;3829;50.798;4.358;2024-03-02T13:56:56;13.10;99.90
7576;DHT22;3829;50.798;4.358;2024-03-02T13:59:23;12.90;99.90
7576;DHT22;3829;50.798;4.358;2024-03-02T14:01:49;12.70;99.90
7576;DHT22;3829;50.798;4.358;2024-03-02T14:04:15;12.70;99.90
7576;DHT22;3829;50.798;4.358;2024-03-02T14:06:42;12.70;99.90
7576;DHT22;3829;50.798;4.358;2024-03-02T14:09:08;12.60;99.90
7576;DHT22;3829;50.798;4.358;2024-03-02T14:11:34;12.50;99.90
7576;DHT22;3829;50.798;4.358;2024-03-02T14:13:59;12.40;99.90
7576;DHT22;3829;50.798;4.358;2024-03-02T14:16:25;12.30;99.90
7576;DHT22;3829;50.798;4.358;2024-03-02T14:18:51;12.30;99.90
7576;DHT22;3829;50.798;4.358;2024-03-02T14:21:16;12.20;99.90
7576;DHT22;3829;50.798;4.358;2024-03-02T14:23:42;12.10;99.90
7576;DHT22;3829;50.798;4.358;2024-03-02T14:26:07;12.00;99.90
7576;DHT22;3829;50.798;4.358;2024-03-02T14:28:33;11.80;99.90
7576;DHT22;3829;50.798;4.358;2024-03-02T14:30:59;11.80;99.90
7576;DHT22;3829;50.798;4.358;2024-03-02T14:33:27;11.70;99.90
7576;DHT22;3829;50.798;4.358;2024-03-02T14:35:52;11.70;99.90
7576;DHT22;3829;50.798;4.358;2024-03-02T14:38:19;11.90;99.90
7576;DHT22;3829;50.798;4.358;2024-03-02T14:40:44;11.90;99.90
7576;DHT22;3829;50.798;4.358;2024-03-02T14:43:10;11.90;99.90
7576;DHT22;3829;50.798;4.358;2024-03-02T14:45:35;11.90;99.90
7576;DHT22;3829;50.798;4.358;2024-03-02T14:48:02;12.00;99.90
7576;DHT22;3829;50.798;4.358;2024-03-02T14:50:28;12.10;99.90
7576;DHT22;3829;50.798;4.358;2024-03-02T14:52:54;12.30;99.90
7576;DHT22;3829;50.798;4.358;2024-03-02T14:55:22;12.40;99.90
7576;DHT22;3829;50.798;4.358;2024-03-02T14:57:49;12.40;99.90
7576;DHT22;3829;50.798;4.358;2024-03-02T15:00:14;12.40;99.90
7576;DHT22;3829;50.798;4.358;2024-03-02T15:02:40;12.30;99.90
7576;DHT22;3829;50.798;4.358;2024-03-02T15:05:06;12.30;99.90
7576;DHT22;3829;50.798;4.358;2024-03-02T15:07:32;12.20;99.90
7576;DHT22;3829;50.798;4.358;2024-03-02T15:09:58;12.20;99.90
7576;DHT22;3829;50.798;4.358;2024-03-02T15:12:23;11.90;99.90
7576;DHT22;3829;50.798;4.358;2024-03-02T15:14:49;12.00;99.90
7576;DHT22;3829;50.798;4.358;2024-03-02T15:17:15;11.80;99.90
7576;DHT22;3829;50.798;4.358;2024-03-02T15:19:45;11.60;99.90
7576;DHT22;3829;50.798;4.358;2024-03-02T15:22:11;11.60;99.90
7576;DHT22;3829;50.798;4.358;2024-03-02T15:24:37;11.60;99.90
7576;DHT22;3829;50.798;4.358;2024-03-02T15:27:03;11.60;99.90
7576;DHT22;3829;50.798;4.358;2024-03-02T15:29:32;11.60;99.90
7576;DHT22;3829;50.798;4.358;2024-03-02T15:31:58;11.60;99.90
7576;DHT22;3829;50.798;4.358;2024-03-02T15:34:23;11.60;99.90
7576;DHT22;3829;50.798;4.358;2024-03-02T15:36:50;11.60;99.90
7576;DHT22;3829;50.798;4.358;2024-03-02T15:39:15;11.60;99.90
7576;DHT22;3829;50.798;4.358;2024-03-02T15:41:44;11.50;99.90
7576;DHT22;3829;50.798;4.358;2024-03-02T15:44:09;11.40;99.90
7576;DHT22;3829;50.798;4.358;2024-03-02T15:46:35;11.50;99.90
7576;DHT22;3829;50.798;4.358;2024-03-02T15:49:01;11.50;99.90
7576;DHT22;3829;50.798;4.358;2024-03-02T15:51:27;11.50;99.90
7576;DHT22;3829;50.798;4.358;2024-03-02T15:53:52;11.50;99.90
7576;DHT22;3829;50.798;4.358;2024-03-02T15:56:18;11.50;99.90
7576;DHT22;3829;50.798;4.358;2024-03-02T15:58:44;11.40;99.90
7576;DHT22;3829;50.798;4.358;2024-03-02T16:01:11;11.50;99.90
7576;DHT22;3829;50.798;4.358;2024-03-02T16:03:37;11.40;99.90
7576;DHT22;3829;50.798;4.358;2024-03-02T16:06:03;11.50;99.90
7576;DHT22;3829;50.798;4.358;2024-03-02T16:08:29;11.40;99.90